createdAt,value
2022-10-11T00:00:13.422Z,1.88
2022-10-11T00:02:40.744Z,1.67
2022-10-11T00:05:08.427Z,1.40
2022-10-11T00:07:37.120Z,2.10
2022-10-11T00:10:05.687Z,1.83
2022-10-11T00:12:32.963Z,1.87
2022-10-11T00:15:00.164Z,2.22
2022-10-11T00:17:27.977Z,1.75
2022-10-11T00:19:55.184Z,2.10
2022-10-11T00:22:22.390Z,2.15
2022-10-11T00:24:49.554Z,1.85
2022-10-11T00:27:16.730Z,2.10
2022-10-11T00:29:43.914Z,1.73
2022-10-11T00:32:11.462Z,1.92
2022-10-11T00:34:38.626Z,1.98
2022-10-11T00:37:05.845Z,1.73
2022-10-11T00:39:33.233Z,2.17
2022-10-11T00:42:00.592Z,1.73
2022-10-11T00:44:28.972Z,1.88
2022-10-11T00:47:03.751Z,1.60
2022-10-11T00:49:40.968Z,2.13
2022-10-11T00:52:35.153Z,1.88
2022-10-11T00:55:12.030Z,2.13
2022-10-11T00:57:41.781Z,2.28
2022-10-11T01:00:12.736Z,1.80
2022-10-11T01:02:40.997Z,2.30
2022-10-11T01:07:56.557Z,2.20
2022-10-11T01:10:23.939Z,2.83
2022-10-11T01:13:17.875Z,1.85
2022-10-11T01:15:50.571Z,2.33
2022-10-11T01:19:12.387Z,2.50
2022-10-11T01:21:53.341Z,2.08
2022-10-11T01:24:39.050Z,2.03
2022-10-11T01:27:27.178Z,1.70
2022-10-11T01:30:18.878Z,2.10
2022-10-11T01:32:59.962Z,2.05
2022-10-11T01:35:49.723Z,2.08
2022-10-11T01:38:27.943Z,2.00
2022-10-11T01:41:09.518Z,2.72
2022-10-11T01:43:37.537Z,2.15
2022-10-11T01:46:07.402Z,2.40
2022-10-11T01:48:46.923Z,2.38
2022-10-11T01:54:09.921Z,2.60
2022-10-11T01:56:51.969Z,2.05
2022-10-11T01:59:32.001Z,2.72
2022-10-11T02:02:14.460Z,2.47
2022-10-11T02:04:52.278Z,3.03
2022-10-11T02:07:40.554Z,2.20
2022-10-11T02:10:17.133Z,3.13
2022-10-11T02:12:49.219Z,2.97
2022-10-11T02:15:18.205Z,2.30
2022-10-11T02:17:55.631Z,2.30
2022-10-11T02:20:25.732Z,2.60
2022-10-11T02:22:59.228Z,2.60
2022-10-11T02:25:28.550Z,2.45
2022-10-11T02:30:24.221Z,2.53
2022-10-11T02:32:52.397Z,2.28
2022-10-11T02:35:19.735Z,2.90
2022-10-11T02:38:24.242Z,3.33
2022-10-11T02:40:58.684Z,2.65
2022-10-11T02:43:31.661Z,3.10
2022-10-11T02:46:00.705Z,2.90
2022-10-11T02:48:29.309Z,2.72
2022-10-11T02:50:57.498Z,3.17
2022-10-11T02:53:25.513Z,2.83
2022-10-11T02:55:54.375Z,2.72
2022-10-11T02:58:22.590Z,3.00
2022-10-11T03:00:49.865Z,3.17
2022-10-11T03:03:17.129Z,2.30
2022-10-11T03:05:44.324Z,3.30
2022-10-11T03:08:13.696Z,3.38
2022-10-11T03:13:08.381Z,3.35
2022-10-11T03:15:35.624Z,3.13
2022-10-11T03:18:02.804Z,2.88
2022-10-11T03:20:29.976Z,3.38
2022-10-11T03:22:57.186Z,3.08
2022-10-11T03:25:24.377Z,3.30
2022-10-11T03:27:51.566Z,4.03
2022-10-11T03:30:20.071Z,3.65
2022-10-11T03:32:47.257Z,3.67
2022-10-11T03:35:14.579Z,3.15
2022-10-11T03:37:41.750Z,3.65
2022-10-11T03:40:10.864Z,4.32
2022-10-11T03:42:38.410Z,3.92
2022-10-11T03:45:08.220Z,3.53
2022-10-11T03:47:36.901Z,3.78
2022-10-11T03:50:05.800Z,4.28
2022-10-11T03:52:32.983Z,4.43
2022-10-11T03:55:00.158Z,3.70
2022-10-11T03:57:27.564Z,4.25
2022-10-11T03:59:54.731Z,4.15
2022-10-11T04:02:22.069Z,3.88
2022-10-11T04:04:49.242Z,4.63
2022-10-11T04:07:16.495Z,4.00
2022-10-11T04:09:43.692Z,4.60
2022-10-11T04:12:10.909Z,3.95
2022-10-11T04:14:38.280Z,4.40
2022-10-11T04:17:05.452Z,4.00
2022-10-11T04:19:32.703Z,4.38
2022-10-11T04:21:59.983Z,4.43
2022-10-11T04:24:27.185Z,4.65
2022-10-11T04:26:54.356Z,4.03
2022-10-11T04:29:21.576Z,4.40
2022-10-11T04:31:48.949Z,4.07
2022-10-11T04:34:16.448Z,4.38
2022-10-11T04:36:47.550Z,4.57
2022-10-11T04:39:16.872Z,4.47
2022-10-11T04:41:44.273Z,4.55
2022-10-11T04:44:11.451Z,4.57
2022-10-11T04:46:38.626Z,4.43
2022-10-11T04:49:06.199Z,3.88
2022-10-11T04:51:33.856Z,5.50
2022-10-11T04:54:01.158Z,4.40
2022-10-11T04:56:30.530Z,4.55
2022-10-11T05:01:25.178Z,4.85
2022-10-11T05:03:52.695Z,4.10
2022-10-11T05:06:19.884Z,4.38
2022-10-11T05:08:47.238Z,4.35
2022-10-11T05:11:16.306Z,3.83
2022-10-11T05:13:44.444Z,4.75
2022-10-11T05:16:12.734Z,4.97
2022-10-11T05:18:40.512Z,4.40
2022-10-11T05:21:16.330Z,5.20
2022-10-11T05:23:43.526Z,4.93
2022-10-11T05:26:10.966Z,4.30
2022-10-11T05:28:38.305Z,5.07
2022-10-11T05:31:05.709Z,4.60
2022-10-11T05:33:33.861Z,4.80
2022-10-11T05:36:01.071Z,5.60
2022-10-11T05:38:28.299Z,5.53
2022-10-11T05:40:58.440Z,4.35
2022-10-11T05:43:25.667Z,5.57
2022-10-11T05:45:52.837Z,5.90
2022-10-11T05:48:20.192Z,5.38
2022-10-11T05:50:47.654Z,5.50
2022-10-11T05:53:14.865Z,5.13
2022-10-11T05:55:43.175Z,5.30
2022-10-11T05:58:14.723Z,4.60
2022-10-11T06:00:41.956Z,4.90
2022-10-11T06:03:11.413Z,4.60
2022-10-11T06:05:38.725Z,4.38
2022-10-11T06:08:08.515Z,5.63
2022-10-11T06:10:36.513Z,4.70
2022-10-11T06:13:03.828Z,4.63
2022-10-11T06:15:31.074Z,4.72
2022-10-11T06:17:59.544Z,4.65
2022-10-11T06:20:27.077Z,4.77
2022-10-11T06:22:54.361Z,4.85
2022-10-11T06:25:21.587Z,4.78
2022-10-11T06:27:48.784Z,4.63
2022-10-11T06:30:16.120Z,4.68
2022-10-11T06:32:43.333Z,5.07
2022-10-11T06:35:10.567Z,4.70
2022-10-11T06:37:37.735Z,4.63
2022-10-11T06:40:05.303Z,4.20
2022-10-11T06:42:32.551Z,4.60
2022-10-11T06:45:00.947Z,4.50
2022-10-11T06:47:28.121Z,5.18
2022-10-11T06:49:55.294Z,4.28
2022-10-11T06:52:22.449Z,4.18
2022-10-11T06:54:49.621Z,4.80
2022-10-11T06:57:16.862Z,4.38
2022-10-11T06:59:44.016Z,4.43
2022-10-11T07:02:11.232Z,4.10
2022-10-11T07:04:39.315Z,4.88
2022-10-11T07:07:07.753Z,4.57
2022-10-11T07:09:35.167Z,4.40
2022-10-11T07:12:02.387Z,4.57
2022-10-11T07:14:29.579Z,4.00
2022-10-11T07:16:57.554Z,3.95
2022-10-11T07:19:24.815Z,3.50
2022-10-11T07:21:52.055Z,3.90
2022-10-11T07:24:19.315Z,4.13
2022-10-11T07:26:46.462Z,3.75
2022-10-11T07:29:13.703Z,4.00
2022-10-11T07:31:42.514Z,3.63
2022-10-11T07:34:10.475Z,3.35
2022-10-11T07:36:37.857Z,4.18
2022-10-11T07:39:07.003Z,3.60
2022-10-11T07:41:34.643Z,3.45
2022-10-11T07:44:03.231Z,3.33
2022-10-11T07:46:31.268Z,3.88
2022-10-11T07:48:58.566Z,4.35
2022-10-11T07:51:26.510Z,4.22
2022-10-11T07:54:08.672Z,3.35
2022-10-11T07:56:36.635Z,3.30
2022-10-11T07:59:03.961Z,3.53
2022-10-11T08:01:32.107Z,4.20
2022-10-11T08:04:00.726Z,3.95
2022-10-11T08:06:31.683Z,3.33
2022-10-11T08:09:00.556Z,4.13
2022-10-11T08:11:34.135Z,3.80
2022-10-11T08:14:02.099Z,3.08
2022-10-11T08:16:29.594Z,3.25
2022-10-11T08:18:57.216Z,3.47
2022-10-11T08:21:26.903Z,2.67
2022-10-11T08:23:54.244Z,3.42
2022-10-11T08:26:21.825Z,3.13
2022-10-11T08:28:49.470Z,3.10
2022-10-11T08:31:18.910Z,2.92
2022-10-11T08:33:46.262Z,3.30
2022-10-11T08:36:13.612Z,3.28
2022-10-11T08:38:41.050Z,3.55
2022-10-11T08:41:32.026Z,3.22
2022-10-11T08:44:51.796Z,3.40
2022-10-11T08:47:41.257Z,3.42
2022-10-11T08:50:22.485Z,4.05
2022-10-11T08:52:55.721Z,3.20
2022-10-11T08:55:32.317Z,3.33
2022-10-11T08:57:59.827Z,3.55
2022-10-11T09:00:31.271Z,2.92
2022-10-11T09:03:14.296Z,2.95
2022-10-11T09:06:01.217Z,2.83
2022-10-11T09:08:53.597Z,2.50
2022-10-11T09:12:14.866Z,3.55
2022-10-11T09:14:57.115Z,2.60
2022-10-11T09:17:46.168Z,2.78
2022-10-11T09:20:30.390Z,3.10
2022-10-11T09:23:04.117Z,2.70
2022-10-11T09:25:55.096Z,3.10
2022-10-11T09:28:30.429Z,2.50
2022-10-11T09:30:58.846Z,2.58
2022-10-11T09:33:34.722Z,3.10
2022-10-11T09:36:04.568Z,2.50
2022-10-11T09:38:51.208Z,2.40
2022-10-11T09:41:29.263Z,2.65
2022-10-11T09:43:56.550Z,3.92
2022-10-11T09:46:37.984Z,2.63
2022-10-11T09:49:09.333Z,2.25
2022-10-11T09:51:37.466Z,2.90
2022-10-11T09:54:07.582Z,3.03
2022-10-11T09:56:41.800Z,3.03
2022-10-11T09:59:28.953Z,2.78
2022-10-11T10:02:14.544Z,2.25
2022-10-11T10:05:01.913Z,2.60
2022-10-11T10:07:31.338Z,2.80
2022-10-11T10:10:11.013Z,2.38
2022-10-11T10:12:47.471Z,2.55
2022-10-11T10:15:18.947Z,2.22
2022-10-11T10:17:53.871Z,2.95
2022-10-11T10:20:24.551Z,2.50
2022-10-11T10:22:52.541Z,2.70
2022-10-11T10:25:30.658Z,2.47
2022-10-11T10:28:00.226Z,3.20
2022-10-11T10:30:30.743Z,2.55
2022-10-11T10:33:12.366Z,2.83
2022-10-11T10:38:20.717Z,3.17
2022-10-11T10:41:04.179Z,2.22
2022-10-11T10:43:36.580Z,2.42
2022-10-11T10:46:26.646Z,3.60
2022-10-11T10:49:53.612Z,3.50
2022-10-11T10:52:30.505Z,2.10
2022-10-11T10:55:15.849Z,2.55
2022-10-11T10:57:57.933Z,2.63
2022-10-11T11:00:25.436Z,2.20
2022-10-11T11:03:04.218Z,2.58
2022-10-11T11:05:48.451Z,1.70
2022-10-11T11:08:53.507Z,2.03
2022-10-11T11:11:44.247Z,2.05
2022-10-11T11:14:21.899Z,2.40
2022-10-11T11:17:13.103Z,2.38
2022-10-11T11:19:53.320Z,2.45
2022-10-11T11:22:32.879Z,2.33
2022-10-11T11:25:18.879Z,1.83
2022-10-11T11:28:09.126Z,2.38
2022-10-11T11:30:48.368Z,2.28
2022-10-11T11:36:26.729Z,2.17
2022-10-11T11:39:01.954Z,1.83
2022-10-11T11:41:39.655Z,2.88
2022-10-11T11:44:16.321Z,2.83
2022-10-11T11:46:52.945Z,2.60
2022-10-11T11:49:41.861Z,2.03
2022-10-11T11:52:36.188Z,2.08
2022-10-11T11:55:17.741Z,1.77
2022-10-11T11:58:02.093Z,2.13
2022-10-11T12:00:40.012Z,1.73
2022-10-11T12:03:22.159Z,1.88
2022-10-11T12:06:14.587Z,1.83
2022-10-11T12:08:43.968Z,2.25
2022-10-11T12:11:35.235Z,2.03
2022-10-11T12:14:04.605Z,1.90
2022-10-11T12:19:03.589Z,2.53
2022-10-11T12:21:39.312Z,1.80
2022-10-11T12:24:22.979Z,2.00
2022-10-11T12:26:55.439Z,1.35
2022-10-11T12:29:44.784Z,1.77
2022-10-11T12:32:35.042Z,1.73
2022-10-11T12:35:30.248Z,1.63
2022-10-11T12:38:22.831Z,1.83
2022-10-11T12:40:54.716Z,1.85
2022-10-11T12:43:48.220Z,1.60
2022-10-11T12:46:31.243Z,1.73
2022-10-11T12:49:38.684Z,1.80
2022-10-11T12:52:18.461Z,2.03
2022-10-11T12:55:24.774Z,2.03
2022-10-11T12:58:25.647Z,1.80
2022-10-11T13:01:04.656Z,1.90
2022-10-11T13:03:44.031Z,1.88
2022-10-11T13:06:25.153Z,1.95
2022-10-11T13:09:05.642Z,2.22
2022-10-11T13:11:39.366Z,2.40
2022-10-11T13:14:46.481Z,2.03
2022-10-11T13:17:48.784Z,1.98
2022-10-11T13:20:24.040Z,2.08
2022-10-11T13:22:53.762Z,1.92
2022-10-11T13:25:24.663Z,2.67
2022-10-11T13:31:13.684Z,2.15
2022-10-11T13:33:45.945Z,2.20
2022-10-11T13:36:21.900Z,2.45
2022-10-11T13:38:57.966Z,1.80
2022-10-11T13:41:30.957Z,2.00
2022-10-11T13:44:00.462Z,2.30
2022-10-11T13:46:28.834Z,1.80
2022-10-11T13:49:04.531Z,1.70
2022-10-11T13:51:38.421Z,1.92
2022-10-11T13:54:13.599Z,1.73
2022-10-11T14:00:26.934Z,2.50
2022-10-11T14:03:15.110Z,1.67
2022-10-11T14:05:57.047Z,1.90
2022-10-11T14:08:47.280Z,1.98
2022-10-11T14:11:37.364Z,2.60
2022-10-11T14:18:41.940Z,1.88
2022-10-11T14:24:57.176Z,2.17
2022-10-11T14:27:28.368Z,2.10
2022-10-11T14:30:23.965Z,1.45
2022-10-11T14:33:00.373Z,1.67
2022-10-11T14:35:30.533Z,1.67
2022-10-11T14:37:57.857Z,1.85
2022-10-11T14:40:29.895Z,1.60
2022-10-11T14:42:57.381Z,1.80
2022-10-11T14:48:12.745Z,1.83
2022-10-11T14:50:48.050Z,1.60
2022-10-11T14:53:18.133Z,1.60
2022-10-11T14:56:20.392Z,1.65
2022-10-11T14:58:48.762Z,1.60
2022-10-11T15:01:17.297Z,2.40
2022-10-11T15:03:51.827Z,1.30
2022-10-11T15:06:32.122Z,1.70
2022-10-11T15:09:00.159Z,1.80
2022-10-11T15:11:27.448Z,1.58
2022-10-11T15:13:54.785Z,1.70
2022-10-11T15:16:24.026Z,1.70
2022-10-11T15:21:25.170Z,2.00
2022-10-11T15:23:53.313Z,1.95
2022-10-11T15:26:24.000Z,1.67
2022-10-11T15:28:51.983Z,1.70
2022-10-11T15:31:21.553Z,1.20
2022-10-11T15:33:52.538Z,1.80
2022-10-11T15:36:22.327Z,1.88
2022-10-11T15:38:50.409Z,1.55
2022-10-11T15:41:19.904Z,1.80
2022-10-11T15:43:49.461Z,2.40
2022-10-11T15:46:26.032Z,1.80
2022-10-11T15:48:54.891Z,2.25
2022-10-11T15:51:34.957Z,2.80
2022-10-11T15:54:02.593Z,2.53
2022-10-11T15:56:33.694Z,2.35
2022-10-11T15:59:02.057Z,2.20
2022-10-11T16:01:29.447Z,2.03
2022-10-11T16:04:16.474Z,2.20
2022-10-11T16:06:46.429Z,2.58
2022-10-11T16:09:13.938Z,2.65
2022-10-11T16:11:41.319Z,2.45
2022-10-11T16:14:09.169Z,2.45
2022-10-11T16:16:38.020Z,2.35
2022-10-11T16:19:05.247Z,2.70
2022-10-11T16:21:32.976Z,2.40
2022-10-11T16:24:00.296Z,2.42
2022-10-11T16:26:44.781Z,3.05
2022-10-11T16:29:50.240Z,6.47
2022-10-11T16:32:17.476Z,9.55
2022-10-11T16:34:44.891Z,4.10
2022-10-11T16:37:13.008Z,4.70
2022-10-11T16:39:40.849Z,4.32
2022-10-11T16:42:08.114Z,7.78
2022-10-11T16:44:37.922Z,4.43
2022-10-11T16:47:06.006Z,5.28
2022-10-11T16:49:33.373Z,4.38
2022-10-11T16:52:02.655Z,10.10
2022-10-11T16:57:00.758Z,57.20
2022-10-11T16:59:28.578Z,39.47
2022-10-11T17:01:59.271Z,19.67
2022-10-11T17:04:26.562Z,10.68
2022-10-11T17:06:55.100Z,14.18
2022-10-11T17:09:22.342Z,22.45
2022-10-11T17:11:49.611Z,10.52
2022-10-11T17:14:17.075Z,9.45
2022-10-11T17:16:44.929Z,8.18
2022-10-11T17:19:14.783Z,87.15
2022-10-11T17:21:44.315Z,252.40
2022-10-11T17:24:12.258Z,74.75
2022-10-11T17:26:41.956Z,21.58
2022-10-11T17:29:14.705Z,10.95
2022-10-11T17:31:48.078Z,11.40
2022-10-11T17:34:16.957Z,10.00
2022-10-11T17:36:44.243Z,12.30
2022-10-11T17:39:17.746Z,12.48
2022-10-11T17:41:45.384Z,13.27
2022-10-11T17:44:13.497Z,11.48
2022-10-11T17:46:46.052Z,21.13
2022-10-11T17:49:13.617Z,17.70
2022-10-11T17:51:42.018Z,12.02
2022-10-11T17:54:13.257Z,11.13
2022-10-11T17:56:41.827Z,12.40
2022-10-11T17:59:15.009Z,11.43
2022-10-11T18:01:42.389Z,10.60
2022-10-11T18:04:16.463Z,12.70
2022-10-11T18:06:46.679Z,12.50
2022-10-11T18:09:16.611Z,11.75
2022-10-11T18:11:44.204Z,13.50
2022-10-11T18:14:11.466Z,12.70
2022-10-11T18:16:40.740Z,11.98
2022-10-11T18:21:39.129Z,16.02
2022-10-11T18:24:13.151Z,19.15
2022-10-11T18:26:40.672Z,24.40
2022-10-11T18:29:08.256Z,21.33
2022-10-11T18:31:36.755Z,22.30
2022-10-11T18:34:10.909Z,22.97
2022-10-11T18:36:38.926Z,21.80
2022-10-11T18:39:08.180Z,22.98
2022-10-11T18:44:05.665Z,22.63
2022-10-11T18:46:33.519Z,23.35
2022-10-11T18:49:02.058Z,22.02
2022-10-11T18:51:31.822Z,22.63
2022-10-11T18:53:59.641Z,22.02
2022-10-11T18:56:28.831Z,22.85
2022-10-11T18:58:57.229Z,22.70
2022-10-11T19:01:28.186Z,22.15
2022-10-11T19:03:57.367Z,20.70
2022-10-11T19:06:37.737Z,21.27
2022-10-11T19:09:13.192Z,20.50
2022-10-11T19:11:41.055Z,21.75
2022-10-11T19:14:11.514Z,22.20
2022-10-11T19:16:40.944Z,23.52
2022-10-11T19:19:09.941Z,22.17
2022-10-11T19:21:37.829Z,24.30
2022-10-11T19:24:06.595Z,22.27
2022-10-11T19:26:38.915Z,24.27
2022-10-11T19:29:20.796Z,25.15
2022-10-11T19:31:53.934Z,24.38
2022-10-11T19:34:22.498Z,26.08
2022-10-11T19:36:52.793Z,25.85
2022-10-11T19:39:21.726Z,26.63
2022-10-11T19:41:49.360Z,28.05
2022-10-11T19:44:17.099Z,28.00
2022-10-11T19:46:51.516Z,28.27
2022-10-11T19:49:22.417Z,29.20
2022-10-11T19:51:49.612Z,28.25
2022-10-11T19:54:16.855Z,27.00
2022-10-11T19:56:44.637Z,27.27
2022-10-11T19:59:14.728Z,27.35
2022-10-11T20:01:43.276Z,26.02
2022-10-11T20:04:33.074Z,25.80
2022-10-11T20:07:00.151Z,25.73
2022-10-11T20:09:30.194Z,26.50
2022-10-11T20:11:58.043Z,26.13
2022-10-11T20:14:25.312Z,30.67
2022-10-11T20:16:52.543Z,29.73
2022-10-11T20:19:22.055Z,21.02
2022-10-11T20:21:52.139Z,20.88
2022-10-11T20:24:23.022Z,24.40
2022-10-11T20:26:50.352Z,17.98
2022-10-11T20:29:18.419Z,18.88
2022-10-11T20:31:45.851Z,21.27
2022-10-11T20:34:13.488Z,23.23
2022-10-11T20:36:40.933Z,24.92
2022-10-11T20:39:10.915Z,28.00
2022-10-11T20:41:44.703Z,26.33
2022-10-11T20:44:13.336Z,27.90
2022-10-11T20:46:45.180Z,27.10
2022-10-11T20:49:13.555Z,27.08
2022-10-11T20:51:41.948Z,25.08
2022-10-11T20:54:09.796Z,27.80
2022-10-11T20:56:37.658Z,23.98
2022-10-11T20:59:06.248Z,24.58
2022-10-11T21:01:39.900Z,23.50
2022-10-11T21:04:08.537Z,27.48
2022-10-11T21:06:35.802Z,26.42
2022-10-11T21:09:03.171Z,25.52
2022-10-11T21:11:33.508Z,28.27
2022-10-11T21:14:06.505Z,27.88
2022-10-11T21:16:34.459Z,29.75
2022-10-11T21:19:02.260Z,27.45
2022-10-11T21:21:30.543Z,26.92
2022-10-11T21:24:00.112Z,27.85
2022-10-11T21:26:28.373Z,25.05
2022-10-11T21:28:57.073Z,23.23
2022-10-11T21:31:24.434Z,23.27
2022-10-11T21:33:51.878Z,21.33
2022-10-11T21:36:21.006Z,21.75
2022-10-11T21:38:49.316Z,20.23
2022-10-11T21:41:21.813Z,18.80
2022-10-11T21:43:49.508Z,20.20
2022-10-11T21:46:19.319Z,18.40
2022-10-11T21:48:47.962Z,15.95
2022-10-11T21:51:17.676Z,16.95
2022-10-11T21:53:44.886Z,17.05
2022-10-11T21:56:12.139Z,15.57
2022-10-11T21:58:39.394Z,14.73
2022-10-11T22:01:06.943Z,15.38
2022-10-11T22:03:34.355Z,14.75
2022-10-11T22:06:05.254Z,14.75
2022-10-11T22:08:32.537Z,15.52
2022-10-11T22:11:01.701Z,13.77
2022-10-11T22:13:30.655Z,14.02
2022-10-11T22:15:57.948Z,13.63
2022-10-11T22:18:25.271Z,13.60
2022-10-11T22:20:52.748Z,12.15
2022-10-11T22:23:20.168Z,12.98
2022-10-11T22:25:47.353Z,12.88
2022-10-11T22:28:14.613Z,12.80
2022-10-11T22:30:41.959Z,12.63
2022-10-11T22:33:09.291Z,11.93
2022-10-11T22:35:37.794Z,12.63
2022-10-11T22:38:06.251Z,12.50
2022-10-11T22:40:33.757Z,11.23
2022-10-11T22:43:02.064Z,10.48
2022-10-11T22:45:29.531Z,11.38
2022-10-11T22:47:57.178Z,11.05
2022-10-11T22:50:24.402Z,10.95
2022-10-11T22:52:51.615Z,11.27
2022-10-11T22:55:20.307Z,10.27
2022-10-11T22:57:47.636Z,10.75
2022-10-11T23:00:15.731Z,10.38
2022-10-11T23:02:42.966Z,10.13
2022-10-11T23:05:10.313Z,10.88
2022-10-11T23:07:38.409Z,10.43
2022-10-11T23:10:06.264Z,10.75
2022-10-11T23:12:39.245Z,10.27
2022-10-11T23:15:07.049Z,10.40
2022-10-11T23:17:34.651Z,10.70
2022-10-11T23:20:02.088Z,11.00
2022-10-11T23:22:30.607Z,10.32
2022-10-11T23:24:58.393Z,10.15
2022-10-11T23:27:25.807Z,11.15
2022-10-11T23:29:53.319Z,10.45
2022-10-11T23:32:20.693Z,10.73
2022-10-11T23:34:48.307Z,10.00
2022-10-11T23:37:15.508Z,10.32
2022-10-11T23:39:42.750Z,10.20
2022-10-11T23:42:09.942Z,10.07
2022-10-11T23:44:37.103Z,9.45
2022-10-11T23:47:04.355Z,10.20
2022-10-11T23:49:31.559Z,9.75
2022-10-11T23:51:58.726Z,9.70
2022-10-11T23:54:26.257Z,9.80
2022-10-11T23:56:54.729Z,8.88
2022-10-11T23:59:21.908Z,8.83
